createdAt,value
2022-09-01T00:01:08.873Z,72.20
2022-09-01T00:03:49.473Z,72.22
2022-09-01T00:06:33.295Z,72.11
2022-09-01T00:09:26.407Z,72.20
2022-09-01T00:12:15.551Z,72.58
2022-09-01T00:14:55.430Z,72.81
2022-09-01T00:17:42.458Z,72.70
2022-09-01T00:20:22.590Z,73.04
2022-09-01T00:23:09.429Z,73.18
2022-09-01T00:25:49.515Z,73.43
2022-09-01T00:28:36.409Z,73.07
2022-09-01T00:31:16.603Z,73.41
2022-09-01T00:34:03.502Z,73.92
2022-09-01T00:36:50.409Z,73.72
2022-09-01T00:39:37.402Z,73.90
2022-09-01T00:42:17.481Z,73.93
2022-09-01T00:45:04.414Z,74.02
2022-09-01T00:47:44.547Z,74.11
2022-09-01T00:50:32.390Z,74.14
2022-09-01T00:53:13.641Z,74.01
2022-09-01T00:56:01.421Z,74.05
2022-09-01T00:58:44.560Z,74.20
2022-09-01T01:01:31.444Z,74.15
2022-09-01T01:04:17.728Z,74.26
2022-09-01T01:07:09.385Z,74.40
2022-09-01T01:09:51.764Z,74.78
2022-09-01T01:12:39.396Z,74.73
2022-09-01T01:15:21.490Z,74.67
2022-09-01T01:18:08.461Z,74.54
2022-09-01T01:21:14.359Z,74.68
2022-09-01T01:24:29.001Z,74.65
2022-09-01T01:27:15.360Z,75.31
2022-09-01T01:29:57.632Z,75.37
2022-09-01T01:32:52.436Z,75.15
2022-09-01T01:35:40.375Z,75.37
2022-09-01T01:38:29.431Z,75.98
2022-09-01T01:41:11.912Z,75.64
2022-09-01T01:43:59.366Z,75.87
2022-09-01T01:46:53.223Z,75.77
2022-09-01T01:49:42.329Z,76.24
2022-09-01T01:52:30.273Z,75.80
2022-09-01T01:55:16.338Z,75.54
2022-09-01T01:57:58.377Z,75.73
2022-09-01T02:00:46.367Z,76.02
2022-09-01T02:03:39.346Z,75.93
2022-09-01T02:06:31.326Z,75.75
2022-09-01T02:09:19.514Z,76.01
2022-09-01T02:12:03.366Z,76.04
2022-09-01T02:14:50.307Z,75.96
2022-09-01T02:17:30.473Z,76.37
2022-09-01T02:20:17.307Z,76.37
2022-09-01T02:22:57.447Z,76.02
2022-09-01T02:26:14.465Z,76.64
2022-09-01T02:28:59.298Z,76.25
2022-09-01T02:31:43.105Z,76.28
2022-09-01T02:34:30.282Z,76.09
2022-09-01T02:37:17.276Z,76.15
2022-09-01T02:40:00.413Z,76.21
2022-09-01T02:42:48.349Z,76.65
2022-09-01T02:45:36.331Z,75.88
2022-09-01T02:48:18.633Z,76.83
2022-09-01T02:51:06.278Z,76.61
2022-09-01T02:53:52.297Z,76.35
2022-09-01T02:56:39.285Z,76.26
2022-09-01T02:59:21.925Z,76.21
2022-09-01T03:02:15.248Z,76.15
2022-09-01T03:04:57.591Z,76.38
2022-09-01T03:26:03.975Z,77.59
2022-09-01T03:28:52.030Z,76.63
2022-09-01T03:31:33.120Z,76.35
2022-09-01T03:34:19.986Z,76.48
2022-09-01T03:37:08.063Z,76.33
2022-09-01T03:39:54.933Z,75.53
2022-09-01T03:42:46.985Z,75.37
2022-09-01T03:45:36.004Z,75.41
2022-09-01T03:48:23.967Z,75.53
2022-09-01T03:51:04.771Z,75.45
2022-09-01T03:53:52.936Z,74.80
2022-09-01T03:56:34.337Z,74.35
2022-09-01T03:59:25.938Z,74.46
2022-09-01T04:02:06.423Z,73.58
2022-09-01T04:04:53.938Z,73.37
2022-09-01T04:07:34.321Z,72.70
2022-09-01T04:10:20.925Z,72.67
2022-09-01T04:13:09.933Z,72.14
2022-09-01T04:15:53.064Z,71.26
2022-09-01T04:18:39.989Z,69.92
2022-09-01T04:21:27.008Z,71.05
2022-09-01T04:24:22.066Z,70.03
2022-09-01T04:27:10.587Z,68.76
2022-09-01T04:29:57.039Z,68.18
2022-09-01T04:32:47.919Z,68.50
2022-09-01T04:35:38.903Z,66.95
2022-09-01T04:38:19.421Z,66.35
2022-09-01T04:41:05.910Z,67.48
2022-09-01T04:43:55.874Z,67.59
2022-09-01T04:46:45.938Z,68.12
2022-09-01T04:49:27.122Z,67.99
2022-09-01T04:52:13.878Z,66.92
2022-09-01T04:55:00.863Z,65.97
2022-09-01T04:57:42.367Z,65.35
2022-09-01T05:00:28.881Z,63.90
2022-09-01T05:03:10.973Z,64.33
2022-09-01T05:06:25.839Z,63.84
2022-09-01T05:09:12.892Z,63.61
2022-09-01T05:12:29.834Z,62.78
2022-09-01T05:15:16.834Z,62.40
2022-09-01T05:18:00.067Z,62.32
2022-09-01T05:20:48.844Z,61.91
2022-09-01T05:23:30.941Z,60.99
2022-09-01T05:26:21.178Z,59.87
2022-09-01T05:29:04.260Z,60.76
2022-09-01T05:31:50.910Z,59.25
2022-09-01T05:34:36.446Z,57.77
2022-09-01T05:37:23.798Z,57.54
2022-09-01T05:40:16.587Z,56.05
2022-09-01T05:42:58.802Z,55.39
2022-09-01T05:45:56.483Z,55.06
2022-09-01T05:48:46.775Z,54.45
2022-09-01T05:51:45.521Z,54.69
2022-09-01T05:54:29.252Z,54.02
2022-09-01T05:57:33.884Z,52.57
2022-09-01T06:00:24.803Z,54.13
2022-09-01T06:03:16.028Z,54.88
2022-09-01T06:06:08.810Z,53.33
2022-09-01T06:08:56.793Z,53.61
2022-09-01T06:11:37.328Z,52.16
2022-09-01T06:14:23.778Z,51.93
2022-09-01T06:17:04.325Z,49.00
2022-09-01T06:19:51.804Z,49.17
2022-09-01T06:22:41.283Z,48.80
2022-09-01T06:25:27.801Z,50.98
2022-09-01T06:28:08.640Z,52.16
2022-09-01T06:30:56.957Z,49.41
2022-09-01T06:33:39.002Z,48.95
2022-09-01T06:36:34.842Z,48.13
2022-09-01T06:39:20.087Z,50.12
2022-09-01T06:42:08.853Z,50.82
2022-09-01T06:45:04.763Z,48.34
2022-09-01T06:47:59.347Z,47.98
2022-09-01T06:53:51.744Z,46.36
2022-09-01T06:56:42.757Z,46.92
2022-09-01T06:59:38.721Z,48.96
2022-09-01T07:06:00.835Z,46.22
2022-09-01T07:09:20.028Z,47.48
2022-09-01T07:12:37.714Z,45.45
2022-09-01T07:18:27.806Z,42.86
2022-09-01T07:21:36.195Z,43.78
2022-09-01T07:24:17.691Z,42.17
2022-09-01T07:27:25.594Z,41.93
2022-09-01T07:30:28.797Z,41.11
2022-09-01T07:36:26.826Z,43.47
2022-09-01T07:46:36.505Z,36.67
2022-09-01T07:52:10.837Z,29.20
2022-09-01T07:54:58.716Z,30.37
2022-09-01T07:57:38.926Z,33.07
2022-09-01T08:00:30.223Z,31.64
2022-09-01T08:03:21.007Z,29.92
2022-09-01T08:06:07.048Z,30.96
2022-09-01T08:08:56.990Z,31.05
2022-09-01T08:12:02.690Z,29.89
2022-09-01T08:15:41.142Z,26.40
2022-09-01T08:18:00.933Z,26.21
2022-09-01T08:20:51.678Z,26.76
2022-09-01T08:23:49.671Z,26.90
2022-09-01T08:26:43.654Z,28.02
2022-09-01T08:29:24.108Z,30.43
2022-09-01T08:32:10.661Z,30.16
2022-09-01T08:34:51.087Z,29.64
2022-09-01T08:37:37.651Z,27.19
2022-09-01T08:40:23.733Z,25.23
2022-09-01T08:43:31.636Z,24.86
2022-09-01T08:46:35.455Z,24.11
2022-09-01T08:49:42.806Z,28.48
2022-09-01T08:52:32.617Z,30.94
2022-09-01T08:55:32.210Z,31.84
2022-09-01T08:58:19.788Z,34.45
2022-09-01T09:01:42.756Z,33.94
2022-09-01T09:04:37.727Z,32.99
2022-09-01T09:07:39.611Z,30.08
2022-09-01T09:10:50.644Z,26.43
2022-09-01T09:13:38.430Z,28.92
2022-09-01T09:16:40.615Z,30.77
2022-09-01T09:19:29.338Z,32.22
2022-09-01T09:22:27.607Z,34.08
2022-09-01T09:25:19.379Z,35.00
2022-09-01T09:28:00.996Z,31.91
2022-09-01T09:30:41.088Z,31.07
2022-09-01T09:33:53.657Z,31.69
2022-09-01T09:36:36.956Z,32.22
2022-09-01T09:39:30.591Z,33.43
2022-09-01T09:42:14.213Z,37.83
2022-09-01T09:44:59.579Z,38.96
2022-09-01T09:47:49.588Z,41.19
2022-09-01T09:50:46.767Z,42.66
2022-09-01T09:53:43.706Z,44.02
2022-09-01T09:56:25.779Z,41.67
2022-09-01T09:59:12.614Z,43.51
2022-09-01T10:02:07.077Z,45.22
2022-09-01T10:04:47.592Z,46.70
2022-09-01T10:07:44.598Z,46.55
2022-09-01T10:10:45.820Z,47.70
2022-09-01T10:13:44.576Z,47.65
2022-09-01T10:16:36.721Z,47.87
2022-09-01T10:19:23.572Z,47.75
2022-09-01T10:22:03.729Z,46.16
2022-09-01T10:24:46.034Z,44.76
2022-09-01T10:27:41.758Z,45.84
2022-09-01T10:30:26.599Z,44.71
2022-09-01T10:33:18.967Z,46.77
2022-09-01T10:36:07.959Z,49.69
2022-09-01T10:39:04.606Z,53.41
2022-09-01T10:42:00.077Z,54.89
2022-09-01T10:45:04.651Z,50.44
2022-09-01T10:47:46.939Z,50.94
2022-09-01T10:50:39.607Z,46.98
2022-09-01T10:53:51.536Z,47.04
2022-09-01T10:56:52.607Z,47.01
2022-09-01T10:59:44.921Z,46.79
2022-09-01T11:02:42.086Z,45.96
2022-09-01T11:05:33.639Z,44.43
2022-09-01T11:08:29.529Z,41.34
2022-09-01T11:11:47.503Z,45.67
2022-09-01T11:14:34.531Z,49.95
2022-09-01T11:17:28.800Z,50.57
2022-09-01T11:20:42.505Z,54.31
2022-09-01T11:23:44.523Z,54.61
2022-09-01T11:26:47.584Z,55.74
2022-09-01T11:30:01.532Z,58.96
2022-09-01T11:32:51.486Z,61.15
2022-09-01T11:35:32.554Z,61.61
2022-09-01T11:38:22.582Z,64.21
2022-09-01T11:41:09.690Z,64.83
2022-09-01T11:43:56.696Z,63.24
2022-09-01T11:46:43.486Z,63.92
2022-09-01T11:50:09.717Z,63.99
2022-09-01T11:53:13.443Z,64.79
2022-09-01T11:55:57.899Z,65.21
2022-09-01T11:58:45.484Z,65.02
2022-09-01T12:01:48.455Z,64.77
2022-09-01T12:04:43.434Z,65.99
2022-09-01T12:07:35.774Z,68.53
2022-09-01T12:10:32.474Z,67.93
2022-09-01T12:13:26.470Z,68.20
2022-09-01T12:16:18.374Z,67.65
2022-09-01T12:19:07.415Z,67.70
2022-09-01T12:21:59.422Z,68.10
2022-09-01T12:24:50.439Z,68.52
2022-09-01T12:27:30.880Z,69.36
2022-09-01T12:30:17.464Z,68.95
2022-09-01T12:36:24.426Z,67.99
2022-09-01T12:39:31.415Z,66.98
2022-09-01T12:42:40.860Z,67.86
2022-09-01T12:45:52.428Z,66.64
2022-09-01T12:48:45.559Z,66.05
2022-09-01T12:51:32.537Z,64.68
2022-09-01T12:54:12.662Z,63.93
2022-09-01T12:56:52.944Z,63.94
2022-09-01T12:59:40.410Z,63.38
2022-09-01T13:05:51.377Z,64.88
2022-09-01T13:08:41.426Z,65.66
2022-09-01T13:11:26.024Z,65.16
2022-09-01T13:14:12.361Z,65.54
2022-09-01T13:16:52.528Z,65.88
2022-09-01T13:19:39.357Z,65.69
2022-09-01T13:22:19.606Z,65.78
2022-09-01T13:25:07.377Z,65.99
2022-09-01T13:27:47.616Z,65.80
2022-09-01T13:30:35.368Z,66.51
2022-09-01T13:33:23.155Z,66.84
2022-09-01T13:39:18.668Z,67.93
2022-09-01T13:42:05.334Z,68.62
2022-09-01T13:44:55.179Z,69.09
2022-09-01T13:53:52.366Z,68.78
2022-09-01T13:56:32.478Z,68.51
2022-09-01T13:59:19.382Z,68.59
2022-09-01T14:01:59.720Z,68.71
2022-09-01T14:04:46.358Z,70.01
2022-09-01T14:07:33.337Z,70.17
2022-09-01T14:10:21.334Z,69.90
2022-09-01T14:13:09.312Z,70.02
2022-09-01T14:15:50.161Z,70.71
2022-09-01T14:18:43.393Z,70.46
2022-09-01T14:21:30.326Z,69.84
2022-09-01T14:24:10.416Z,70.36
2022-09-01T14:26:57.315Z,70.83
2022-09-01T14:32:25.310Z,69.24
2022-09-01T14:35:14.388Z,68.47
2022-09-01T14:38:02.345Z,67.81
2022-09-01T14:40:50.380Z,67.29
2022-09-01T14:43:39.285Z,66.00
2022-09-01T14:46:20.469Z,65.99
2022-09-01T14:49:08.262Z,65.37
2022-09-01T14:52:11.352Z,66.12
2022-09-01T14:54:51.814Z,67.62
2022-09-01T14:57:39.296Z,66.86
2022-09-01T15:00:20.296Z,66.82
2022-09-01T15:03:09.513Z,67.06
2022-09-01T15:05:51.035Z,67.75
2022-09-01T15:08:38.262Z,68.17
2022-09-01T15:28:05.287Z,72.60
2022-09-01T15:30:46.630Z,72.59
2022-09-01T15:33:34.283Z,72.15
2022-09-01T15:36:20.779Z,71.70
2022-09-01T15:39:07.249Z,71.38
2022-09-01T15:41:47.653Z,71.00
2022-09-01T15:44:34.310Z,70.79
2022-09-01T15:47:21.326Z,70.56
2022-09-01T15:50:08.306Z,70.36
2022-09-01T15:52:59.671Z,70.27
2022-09-01T15:55:58.244Z,70.90
2022-09-01T15:58:57.531Z,70.54
2022-09-01T16:01:49.284Z,70.11
2022-09-01T16:04:29.697Z,70.48
2022-09-01T16:07:17.266Z,70.58
2022-09-01T16:10:04.260Z,70.07
2022-09-01T16:12:51.780Z,69.91
2022-09-01T16:15:39.284Z,70.00
2022-09-01T16:18:25.378Z,70.41
2022-09-01T16:21:21.259Z,70.10
2022-09-01T16:24:08.213Z,70.39
2022-09-01T16:27:03.215Z,70.19
2022-09-01T16:30:16.261Z,69.81
2022-09-01T16:32:56.310Z,69.35
2022-09-01T16:36:14.234Z,69.30
2022-09-01T16:38:58.412Z,69.14
2022-09-01T16:41:52.226Z,69.19
2022-09-01T16:45:07.232Z,69.48
2022-09-01T16:48:10.368Z,69.89
2022-09-01T16:50:57.211Z,69.58
2022-09-01T16:54:07.224Z,69.73
2022-09-01T16:57:01.210Z,69.77
2022-09-01T16:59:59.069Z,69.23
2022-09-01T17:03:04.197Z,69.25
2022-09-01T17:06:18.465Z,69.26
2022-09-01T17:09:14.240Z,70.00
2022-09-01T17:12:20.058Z,69.94
2022-09-01T17:15:15.191Z,69.99
2022-09-01T17:18:22.131Z,70.30
2022-09-01T17:21:20.179Z,70.30
2022-09-01T17:24:06.150Z,70.27
2022-09-01T17:26:58.181Z,70.09
2022-09-01T17:29:59.147Z,69.56
2022-09-01T17:33:02.154Z,69.73
2022-09-01T17:36:00.351Z,69.72
2022-09-01T17:39:00.182Z,69.65
2022-09-01T17:41:52.843Z,69.30
2022-09-01T17:44:52.144Z,69.57
2022-09-01T17:47:48.315Z,69.95
2022-09-01T17:50:54.931Z,69.54
2022-09-01T17:54:05.144Z,69.63
2022-09-01T17:57:33.138Z,69.36
2022-09-01T18:00:34.870Z,69.67
2022-09-01T18:03:41.098Z,69.74
2022-09-01T18:06:31.170Z,69.87
2022-09-01T18:09:22.364Z,70.08
2022-09-01T18:12:11.117Z,70.42
2022-09-01T18:15:18.127Z,70.68
2022-09-01T18:18:11.195Z,70.48
2022-09-01T18:21:05.129Z,70.60
2022-09-01T18:23:48.555Z,70.21
2022-09-01T18:26:42.274Z,70.38
2022-09-01T18:29:29.716Z,70.46
2022-09-01T18:32:24.287Z,70.21
2022-09-01T18:35:08.620Z,70.36
2022-09-01T18:38:19.209Z,70.21
2022-09-01T18:41:12.341Z,70.04
2022-09-01T18:44:17.767Z,69.68
2022-09-01T18:47:09.342Z,69.66
2022-09-01T18:49:49.682Z,69.44
2022-09-01T18:53:09.316Z,69.34
2022-09-01T18:56:37.554Z,69.06
2022-09-01T18:59:47.326Z,68.95
2022-09-01T19:03:06.604Z,69.21
2022-09-01T19:06:05.306Z,69.43
2022-09-01T19:09:22.328Z,69.69
2022-09-01T19:12:19.307Z,69.71
2022-09-01T19:15:26.026Z,69.76
2022-09-01T19:18:31.299Z,69.61
2022-09-01T19:21:33.264Z,69.36
2022-09-01T19:24:30.285Z,69.36
2022-09-01T19:27:28.227Z,69.74
2022-09-01T19:30:16.180Z,70.25
2022-09-01T19:33:04.081Z,69.96
2022-09-01T19:35:47.456Z,70.15
2022-09-01T19:38:38.087Z,70.25
2022-09-01T19:41:35.033Z,70.22
2022-09-01T19:44:28.018Z,70.10
2022-09-01T19:47:23.046Z,70.25
2022-09-01T19:50:21.010Z,70.46
2022-09-01T19:53:38.887Z,70.49
2022-09-01T19:56:39.846Z,70.87
2022-09-01T19:59:42.947Z,70.78
2022-09-01T20:02:43.045Z,70.60
2022-09-01T20:05:32.187Z,70.74
2022-09-01T20:08:31.021Z,70.52
2022-09-01T20:11:35.243Z,70.54
2022-09-01T20:14:37.117Z,70.74
2022-09-01T20:17:27.530Z,70.69
2022-09-01T20:20:22.004Z,70.65
2022-09-01T20:23:31.031Z,70.39
2022-09-01T20:26:22.967Z,70.46
2022-09-01T20:29:23.010Z,69.98
2022-09-01T20:32:06.098Z,70.25
2022-09-01T20:34:59.997Z,69.73
2022-09-01T20:37:54.084Z,69.50
2022-09-01T20:40:47.023Z,69.28
2022-09-01T20:43:46.000Z,69.30
2022-09-01T20:46:26.854Z,68.96
2022-09-01T20:49:13.987Z,68.77
2022-09-01T20:52:00.272Z,68.84
2022-09-01T20:55:15.947Z,68.43
2022-09-01T20:58:20.359Z,68.37
2022-09-01T21:01:28.953Z,68.06
2022-09-01T21:04:23.725Z,68.17
2022-09-01T21:07:13.928Z,67.60
2022-09-01T21:10:09.937Z,67.61
2022-09-01T21:13:02.932Z,67.49
2022-09-01T21:16:06.931Z,67.57
2022-09-01T21:19:20.925Z,67.42
2022-09-01T21:22:27.905Z,67.19
2022-09-01T21:25:15.034Z,67.25
2022-09-01T21:28:05.933Z,66.93
2022-09-01T21:30:46.096Z,66.63
2022-09-01T21:33:38.894Z,66.27
2022-09-01T21:36:19.030Z,65.95
2022-09-01T21:39:05.892Z,65.89
2022-09-01T21:41:46.090Z,65.74
2022-09-01T21:44:32.878Z,65.97
2022-09-01T21:47:13.019Z,65.98
2022-09-01T21:49:59.906Z,65.87
2022-09-01T21:52:40.049Z,65.35
2022-09-01T21:55:27.881Z,65.26
2022-09-01T21:58:14.899Z,65.36
2022-09-01T22:01:02.063Z,65.15
2022-09-01T22:03:41.880Z,65.09
2022-09-01T22:06:29.905Z,65.31
2022-09-01T22:09:20.887Z,65.23
2022-09-01T22:12:07.889Z,65.20
2022-09-01T22:14:47.993Z,65.05
2022-09-01T22:17:34.842Z,64.89
2022-09-01T22:20:17.180Z,64.93
2022-09-01T22:23:04.846Z,64.91
2022-09-01T22:25:56.830Z,64.82
2022-09-01T22:28:43.870Z,64.99
2022-09-01T22:31:26.980Z,64.76
2022-09-01T22:34:14.879Z,64.58
2022-09-01T22:37:02.870Z,64.43
2022-09-01T22:39:49.886Z,64.64
2022-09-01T22:42:29.930Z,64.53
2022-09-01T22:45:19.834Z,64.55
2022-09-01T22:48:06.841Z,64.46
2022-09-01T22:50:54.835Z,64.24
2022-09-01T22:53:41.866Z,64.18
2022-09-01T22:56:28.036Z,64.28
2022-09-01T22:59:16.850Z,64.28
2022-09-01T23:02:04.010Z,64.25
2022-09-01T23:04:44.822Z,64.08
2022-09-01T23:07:25.346Z,64.27
2022-09-01T23:10:12.831Z,64.55
2022-09-01T23:12:53.377Z,64.85
2022-09-01T23:15:39.820Z,64.55
2022-09-01T23:18:20.232Z,64.65
2022-09-01T23:21:08.884Z,64.62
2022-09-01T23:23:55.154Z,64.60
2022-09-01T23:26:46.773Z,64.62
2022-09-01T23:29:27.245Z,64.81
2022-09-01T23:32:15.847Z,64.87
2022-09-01T23:34:56.889Z,64.75
2022-09-01T23:37:43.778Z,64.71
2022-09-01T23:40:30.820Z,64.72
2022-09-01T23:43:17.805Z,64.67
2022-09-01T23:45:58.279Z,64.79
2022-09-01T23:48:44.773Z,64.67
2022-09-01T23:51:25.772Z,64.53
2022-09-01T23:54:12.787Z,64.28
2022-09-01T23:56:59.786Z,64.26
2022-09-01T23:59:40.856Z,64.37
